sensor_id;sensor_type;location;lat;lon;timestamp;P1;durP1;ratioP1;P2;durP2;ratioP2
48361;SDS011;34510;51.888;5.670;2023-02-18T00:01:14;759.13;;;493.30;;
48361;SDS011;34510;51.888;5.670;2023-02-18T00:06:20;760.77;;;483.37;;
48361;SDS011;34510;51.888;5.670;2023-02-18T00:11:25;761.05;;;499.27;;
48361;SDS011;34510;51.888;5.670;2023-02-18T00:16:27;757.15;;;482.77;;
48361;SDS011;34510;51.888;5.670;2023-02-18T00:21:32;757.92;;;488.65;;
48361;SDS011;34510;51.888;5.670;2023-02-18T00:26:37;756.17;;;488.97;;
48361;SDS011;34510;51.888;5.670;2023-02-18T00:31:39;763.35;;;500.08;;
48361;SDS011;34510;51.888;5.670;2023-02-18T00:36:42;758.30;;;488.70;;
48361;SDS011;34510;51.888;5.670;2023-02-18T00:41:44;767.20;;;506.55;;
48361;SDS011;34510;51.888;5.670;2023-02-18T00:46:48;762.88;;;497.60;;
48361;SDS011;34510;51.888;5.670;2023-02-18T00:51:50;761.15;;;492.80;;
48361;SDS011;34510;51.888;5.670;2023-02-18T00:56:52;757.13;;;498.80;;
48361;SDS011;34510;51.888;5.670;2023-02-18T01:01:54;763.95;;;502.65;;
48361;SDS011;34510;51.888;5.670;2023-02-18T01:06:57;789.67;;;503.40;;
48361;SDS011;34510;51.888;5.670;2023-02-18T01:11:59;764.65;;;505.73;;
48361;SDS011;34510;51.888;5.670;2023-02-18T01:17:01;767.00;;;501.98;;
48361;SDS011;34510;51.888;5.670;2023-02-18T01:22:03;764.60;;;486.77;;
48361;SDS011;34510;51.888;5.670;2023-02-18T01:27:08;777.42;;;507.35;;
48361;SDS011;34510;51.888;5.670;2023-02-18T01:32:10;774.47;;;510.90;;
48361;SDS011;34510;51.888;5.670;2023-02-18T01:37:12;775.17;;;506.60;;
48361;SDS011;34510;51.888;5.670;2023-02-18T01:42:22;785.65;;;532.65;;
48361;SDS011;34510;51.888;5.670;2023-02-18T01:47:26;771.35;;;491.25;;
48361;SDS011;34510;51.888;5.670;2023-02-18T01:52:28;779.15;;;521.55;;
48361;SDS011;34510;51.888;5.670;2023-02-18T01:57:34;775.92;;;503.75;;
48361;SDS011;34510;51.888;5.670;2023-02-18T02:02:39;782.53;;;512.50;;
48361;SDS011;34510;51.888;5.670;2023-02-18T02:07:46;782.67;;;518.03;;
48361;SDS011;34510;51.888;5.670;2023-02-18T02:35:18;780.05;;;517.45;;
48361;SDS011;34510;51.888;5.670;2023-02-18T02:40:27;778.55;;;512.45;;
48361;SDS011;34510;51.888;5.670;2023-02-18T02:51:25;779.40;;;517.30;;
48361;SDS011;34510;51.888;5.670;2023-02-18T02:56:31;777.55;;;509.27;;
48361;SDS011;34510;51.888;5.670;2023-02-18T03:01:36;772.28;;;498.15;;
48361;SDS011;34510;51.888;5.670;2023-02-18T03:12:13;775.88;;;515.63;;
48361;SDS011;34510;51.888;5.670;2023-02-18T03:17:26;772.35;;;513.33;;
48361;SDS011;34510;51.888;5.670;2023-02-18T03:22:32;774.55;;;523.53;;
48361;SDS011;34510;51.888;5.670;2023-02-18T03:27:42;776.53;;;536.95;;
48361;SDS011;34510;51.888;5.670;2023-02-18T03:32:57;760.88;;;520.03;;
48361;SDS011;34510;51.888;5.670;2023-02-18T03:38:08;758.47;;;509.42;;
48361;SDS011;34510;51.888;5.670;2023-02-18T03:43:18;767.28;;;526.00;;
48361;SDS011;34510;51.888;5.670;2023-02-18T03:48:20;763.28;;;521.60;;
48361;SDS011;34510;51.888;5.670;2023-02-18T03:53:25;762.30;;;521.83;;
48361;SDS011;34510;51.888;5.670;2023-02-18T03:58:27;762.35;;;511.77;;
48361;SDS011;34510;51.888;5.670;2023-02-18T04:03:29;767.15;;;517.58;;
48361;SDS011;34510;51.888;5.670;2023-02-18T04:08:31;761.50;;;523.58;;
48361;SDS011;34510;51.888;5.670;2023-02-18T04:13:33;757.95;;;507.80;;
48361;SDS011;34510;51.888;5.670;2023-02-18T04:18:35;758.22;;;513.20;;
48361;SDS011;34510;51.888;5.670;2023-02-18T04:23:37;738.05;;;475.15;;
48361;SDS011;34510;51.888;5.670;2023-02-18T04:28:39;707.67;;;432.30;;
48361;SDS011;34510;51.888;5.670;2023-02-18T04:33:41;718.33;;;311.50;;
48361;SDS011;34510;51.888;5.670;2023-02-18T04:38:43;741.35;;;413.65;;
48361;SDS011;34510;51.888;5.670;2023-02-18T04:43:45;845.37;;;300.73;;
48361;SDS011;34510;51.888;5.670;2023-02-18T04:48:47;740.10;;;455.63;;
48361;SDS011;34510;51.888;5.670;2023-02-18T04:53:49;742.00;;;474.15;;
48361;SDS011;34510;51.888;5.670;2023-02-18T04:58:51;572.35;;;460.35;;
48361;SDS011;34510;51.888;5.670;2023-02-18T05:03:53;598.20;;;475.65;;
48361;SDS011;34510;51.888;5.670;2023-02-18T05:08:55;670.67;;;467.75;;
48361;SDS011;34510;51.888;5.670;2023-02-18T05:13:56;768.20;;;405.27;;
48361;SDS011;34510;51.888;5.670;2023-02-18T05:18:58;812.37;;;270.60;;
48361;SDS011;34510;51.888;5.670;2023-02-18T05:39:06;689.63;;;467.60;;
48361;SDS011;34510;51.888;5.670;2023-02-18T05:44:08;596.72;;;466.00;;
48361;SDS011;34510;51.888;5.670;2023-02-18T05:49:28;585.50;;;453.98;;
48361;SDS011;34510;51.888;5.670;2023-02-18T05:54:32;550.83;;;457.25;;
48361;SDS011;34510;51.888;5.670;2023-02-18T05:59:34;556.97;;;465.17;;
48361;SDS011;34510;51.888;5.670;2023-02-18T06:04:36;567.85;;;470.13;;
48361;SDS011;34510;51.888;5.670;2023-02-18T06:09:38;582.42;;;480.02;;
48361;SDS011;34510;51.888;5.670;2023-02-18T06:14:40;659.53;;;462.27;;
48361;SDS011;34510;51.888;5.670;2023-02-18T06:19:43;618.63;;;481.48;;
48361;SDS011;34510;51.888;5.670;2023-02-18T06:24:45;600.78;;;451.67;;
48361;SDS011;34510;51.888;5.670;2023-02-18T06:29:48;624.78;;;467.15;;
48361;SDS011;34510;51.888;5.670;2023-02-18T06:34:50;702.72;;;450.80;;
48361;SDS011;34510;51.888;5.670;2023-02-18T06:39:52;678.35;;;453.83;;
48361;SDS011;34510;51.888;5.670;2023-02-18T06:44:53;666.60;;;462.58;;
48361;SDS011;34510;51.888;5.670;2023-02-18T06:49:55;643.35;;;460.13;;
48361;SDS011;34510;51.888;5.670;2023-02-18T06:54:57;727.97;;;440.92;;
48361;SDS011;34510;51.888;5.670;2023-02-18T06:59:59;724.85;;;428.83;;
48361;SDS011;34510;51.888;5.670;2023-02-18T07:05:02;721.42;;;449.60;;
48361;SDS011;34510;51.888;5.670;2023-02-18T07:10:04;714.22;;;445.92;;
48361;SDS011;34510;51.888;5.670;2023-02-18T07:15:07;722.17;;;443.38;;
48361;SDS011;34510;51.888;5.670;2023-02-18T07:20:09;731.63;;;455.00;;
48361;SDS011;34510;51.888;5.670;2023-02-18T07:25:11;729.55;;;445.15;;
48361;SDS011;34510;51.888;5.670;2023-02-18T07:30:13;742.28;;;471.98;;
48361;SDS011;34510;51.888;5.670;2023-02-18T07:35:16;720.45;;;447.88;;
48361;SDS011;34510;51.888;5.670;2023-02-18T07:40:18;707.28;;;449.52;;
48361;SDS011;34510;51.888;5.670;2023-02-18T07:45:22;707.95;;;466.13;;
48361;SDS011;34510;51.888;5.670;2023-02-18T07:50:23;702.55;;;450.90;;
48361;SDS011;34510;51.888;5.670;2023-02-18T07:55:25;721.30;;;460.00;;
48361;SDS011;34510;51.888;5.670;2023-02-18T08:00:49;712.58;;;450.70;;
48361;SDS011;34510;51.888;5.670;2023-02-18T08:05:54;725.00;;;450.02;;
48361;SDS011;34510;51.888;5.670;2023-02-18T08:10:57;738.72;;;456.02;;
48361;SDS011;34510;51.888;5.670;2023-02-18T08:16:14;730.20;;;440.10;;
48361;SDS011;34510;51.888;5.670;2023-02-18T08:21:18;720.33;;;461.80;;
48361;SDS011;34510;51.888;5.670;2023-02-18T08:26:20;722.20;;;446.80;;
48361;SDS011;34510;51.888;5.670;2023-02-18T08:31:24;722.72;;;455.65;;
48361;SDS011;34510;51.888;5.670;2023-02-18T08:36:28;735.75;;;458.33;;
48361;SDS011;34510;51.888;5.670;2023-02-18T08:41:31;729.58;;;442.55;;
48361;SDS011;34510;51.888;5.670;2023-02-18T08:46:33;724.20;;;457.20;;
48361;SDS011;34510;51.888;5.670;2023-02-18T08:51:37;718.78;;;445.95;;
48361;SDS011;34510;51.888;5.670;2023-02-18T08:56:40;731.50;;;459.60;;
48361;SDS011;34510;51.888;5.670;2023-02-18T09:01:42;716.03;;;453.42;;
48361;SDS011;34510;51.888;5.670;2023-02-18T09:06:44;706.63;;;453.80;;
48361;SDS011;34510;51.888;5.670;2023-02-18T09:11:47;715.55;;;450.65;;
48361;SDS011;34510;51.888;5.670;2023-02-18T09:16:49;722.13;;;452.35;;
48361;SDS011;34510;51.888;5.670;2023-02-18T09:21:51;737.97;;;440.23;;
48361;SDS011;34510;51.888;5.670;2023-02-18T09:26:53;739.63;;;447.67;;
48361;SDS011;34510;51.888;5.670;2023-02-18T09:31:58;683.70;;;434.50;;
48361;SDS011;34510;51.888;5.670;2023-02-18T09:37:02;649.35;;;432.77;;
48361;SDS011;34510;51.888;5.670;2023-02-18T09:42:06;648.40;;;431.55;;
48361;SDS011;34510;51.888;5.670;2023-02-18T09:47:15;695.25;;;444.35;;
48361;SDS011;34510;51.888;5.670;2023-02-18T09:52:28;710.53;;;449.65;;
48361;SDS011;34510;51.888;5.670;2023-02-18T10:38:33;732.33;;;427.67;;
48361;SDS011;34510;51.888;5.670;2023-02-18T10:54:06;1902.50;;;403.10;;
48361;SDS011;34510;51.888;5.670;2023-02-18T11:04:20;672.78;;;455.98;;
48361;SDS011;34510;51.888;5.670;2023-02-18T11:15:02;698.85;;;459.50;;
48361;SDS011;34510;51.888;5.670;2023-02-18T11:25:37;717.03;;;459.85;;
48361;SDS011;34510;51.888;5.670;2023-02-18T11:30:44;704.58;;;448.48;;
48361;SDS011;34510;51.888;5.670;2023-02-18T11:35:53;736.42;;;465.23;;
48361;SDS011;34510;51.888;5.670;2023-02-18T11:41:01;751.75;;;496.20;;
48361;SDS011;34510;51.888;5.670;2023-02-18T11:46:12;754.80;;;506.58;;
48361;SDS011;34510;51.888;5.670;2023-02-18T11:51:22;750.75;;;500.30;;
48361;SDS011;34510;51.888;5.670;2023-02-18T11:56:28;751.60;;;504.88;;
48361;SDS011;34510;51.888;5.670;2023-02-18T12:12:29;706.00;;;505.85;;
48361;SDS011;34510;51.888;5.670;2023-02-18T12:17:44;714.27;;;514.47;;
48361;SDS011;34510;51.888;5.670;2023-02-18T12:33:54;713.35;;;507.48;;
48361;SDS011;34510;51.888;5.670;2023-02-18T13:00:42;723.33;;;521.47;;
48361;SDS011;34510;51.888;5.670;2023-02-18T13:11:13;712.35;;;519.88;;
48361;SDS011;34510;51.888;5.670;2023-02-18T13:16:20;679.50;;;508.67;;
48361;SDS011;34510;51.888;5.670;2023-02-18T13:21:23;693.80;;;524.83;;
48361;SDS011;34510;51.888;5.670;2023-02-18T13:26:26;684.47;;;512.63;;
48361;SDS011;34510;51.888;5.670;2023-02-18T13:37:14;704.97;;;519.55;;
48361;SDS011;34510;51.888;5.670;2023-02-18T13:42:23;712.03;;;534.08;;
48361;SDS011;34510;51.888;5.670;2023-02-18T13:52:36;746.75;;;537.67;;
48361;SDS011;34510;51.888;5.670;2023-02-18T13:57:38;746.20;;;549.75;;
48361;SDS011;34510;51.888;5.670;2023-02-18T14:02:54;753.28;;;535.95;;
48361;SDS011;34510;51.888;5.670;2023-02-18T14:08:05;763.03;;;524.08;;
48361;SDS011;34510;51.888;5.670;2023-02-18T14:13:37;760.90;;;527.78;;
48361;SDS011;34510;51.888;5.670;2023-02-18T14:18:59;762.80;;;529.67;;
48361;SDS011;34510;51.888;5.670;2023-02-18T14:24:03;761.30;;;534.60;;
48361;SDS011;34510;51.888;5.670;2023-02-18T14:29:10;764.15;;;551.75;;
48361;SDS011;34510;51.888;5.670;2023-02-18T14:39:28;764.15;;;552.17;;
48361;SDS011;34510;51.888;5.670;2023-02-18T14:50:14;758.08;;;552.83;;
48361;SDS011;34510;51.888;5.670;2023-02-18T15:00:26;766.08;;;571.45;;
48361;SDS011;34510;51.888;5.670;2023-02-18T15:05:36;764.25;;;576.30;;
48361;SDS011;34510;51.888;5.670;2023-02-18T15:10:49;772.92;;;582.25;;
48361;SDS011;34510;51.888;5.670;2023-02-18T15:16:07;767.78;;;570.03;;
48361;SDS011;34510;51.888;5.670;2023-02-18T15:21:18;768.80;;;570.47;;
48361;SDS011;34510;51.888;5.670;2023-02-18T15:26:29;771.25;;;551.40;;
48361;SDS011;34510;51.888;5.670;2023-02-18T15:31:35;763.53;;;556.50;;
48361;SDS011;34510;51.888;5.670;2023-02-18T15:36:39;761.58;;;553.40;;
48361;SDS011;34510;51.888;5.670;2023-02-18T15:41:41;763.45;;;546.60;;
48361;SDS011;34510;51.888;5.670;2023-02-18T15:46:43;752.88;;;547.53;;
48361;SDS011;34510;51.888;5.670;2023-02-18T15:51:45;759.63;;;551.22;;
48361;SDS011;34510;51.888;5.670;2023-02-18T15:56:48;750.40;;;538.03;;
48361;SDS011;34510;51.888;5.670;2023-02-18T16:02:09;754.13;;;546.35;;
48361;SDS011;34510;51.888;5.670;2023-02-18T16:07:48;751.25;;;538.88;;
48361;SDS011;34510;51.888;5.670;2023-02-18T16:12:50;748.53;;;523.33;;
48361;SDS011;34510;51.888;5.670;2023-02-18T16:17:54;759.45;;;536.97;;
48361;SDS011;34510;51.888;5.670;2023-02-18T16:23:00;752.05;;;521.05;;
48361;SDS011;34510;51.888;5.670;2023-02-18T16:28:05;759.90;;;527.90;;
48361;SDS011;34510;51.888;5.670;2023-02-18T16:33:12;757.67;;;529.45;;
48361;SDS011;34510;51.888;5.670;2023-02-18T16:38:16;761.50;;;524.67;;
48361;SDS011;34510;51.888;5.670;2023-02-18T16:43:24;761.53;;;530.55;;
48361;SDS011;34510;51.888;5.670;2023-02-18T16:48:34;756.03;;;512.35;;
48361;SDS011;34510;51.888;5.670;2023-02-18T16:53:37;760.22;;;523.72;;
48361;SDS011;34510;51.888;5.670;2023-02-18T16:58:40;765.08;;;524.58;;
48361;SDS011;34510;51.888;5.670;2023-02-18T17:03:42;755.38;;;510.80;;
48361;SDS011;34510;51.888;5.670;2023-02-18T17:08:44;759.05;;;513.20;;
48361;SDS011;34510;51.888;5.670;2023-02-18T17:13:47;762.20;;;521.53;;
48361;SDS011;34510;51.888;5.670;2023-02-18T17:18:50;750.42;;;507.73;;
48361;SDS011;34510;51.888;5.670;2023-02-18T17:23:52;752.10;;;500.17;;
48361;SDS011;34510;51.888;5.670;2023-02-18T17:28:55;761.53;;;507.80;;
48361;SDS011;34510;51.888;5.670;2023-02-18T17:33:59;762.10;;;503.55;;
48361;SDS011;34510;51.888;5.670;2023-02-18T17:39:05;756.70;;;499.88;;
48361;SDS011;34510;51.888;5.670;2023-02-18T17:44:13;758.95;;;492.98;;
48361;SDS011;34510;51.888;5.670;2023-02-18T17:49:17;751.80;;;501.63;;
48361;SDS011;34510;51.888;5.670;2023-02-18T17:54:19;750.85;;;504.58;;
48361;SDS011;34510;51.888;5.670;2023-02-18T17:59:23;749.63;;;483.30;;
48361;SDS011;34510;51.888;5.670;2023-02-18T18:04:25;747.45;;;491.42;;
48361;SDS011;34510;51.888;5.670;2023-02-18T18:09:27;751.97;;;480.42;;
48361;SDS011;34510;51.888;5.670;2023-02-18T18:14:29;746.88;;;487.15;;
48361;SDS011;34510;51.888;5.670;2023-02-18T18:19:31;751.72;;;482.35;;
48361;SDS011;34510;51.888;5.670;2023-02-18T18:24:34;756.20;;;486.80;;
48361;SDS011;34510;51.888;5.670;2023-02-18T18:29:36;755.22;;;491.30;;
48361;SDS011;34510;51.888;5.670;2023-02-18T18:34:38;751.55;;;491.13;;
48361;SDS011;34510;51.888;5.670;2023-02-18T18:39:39;665.30;;;496.10;;
48361;SDS011;34510;51.888;5.670;2023-02-18T18:44:41;647.22;;;495.70;;
48361;SDS011;34510;51.888;5.670;2023-02-18T18:49:43;645.85;;;503.02;;
48361;SDS011;34510;51.888;5.670;2023-02-18T18:54:46;633.35;;;496.30;;
48361;SDS011;34510;51.888;5.670;2023-02-18T18:59:48;634.85;;;491.10;;
48361;SDS011;34510;51.888;5.670;2023-02-18T19:04:50;604.38;;;499.20;;
48361;SDS011;34510;51.888;5.670;2023-02-18T19:09:51;607.95;;;501.42;;
48361;SDS011;34510;51.888;5.670;2023-02-18T19:14:53;606.90;;;486.83;;
48361;SDS011;34510;51.888;5.670;2023-02-18T19:19:55;607.63;;;490.63;;
48361;SDS011;34510;51.888;5.670;2023-02-18T19:24:57;611.55;;;491.00;;
48361;SDS011;34510;51.888;5.670;2023-02-18T19:29:59;620.28;;;490.10;;
48361;SDS011;34510;51.888;5.670;2023-02-18T19:35:01;643.97;;;510.63;;
48361;SDS011;34510;51.888;5.670;2023-02-18T19:40:04;653.13;;;509.17;;
48361;SDS011;34510;51.888;5.670;2023-02-18T19:45:07;643.50;;;501.85;;
48361;SDS011;34510;51.888;5.670;2023-02-18T19:50:13;646.53;;;508.67;;
48361;SDS011;34510;51.888;5.670;2023-02-18T19:55:16;636.92;;;503.42;;
48361;SDS011;34510;51.888;5.670;2023-02-18T20:00:19;649.75;;;512.72;;
48361;SDS011;34510;51.888;5.670;2023-02-18T20:05:22;658.63;;;509.88;;
48361;SDS011;34510;51.888;5.670;2023-02-18T20:10:25;664.17;;;497.50;;
48361;SDS011;34510;51.888;5.670;2023-02-18T20:15:26;658.78;;;540.40;;
48361;SDS011;34510;51.888;5.670;2023-02-18T20:20:28;641.75;;;512.55;;
48361;SDS011;34510;51.888;5.670;2023-02-18T20:25:30;637.72;;;509.15;;
48361;SDS011;34510;51.888;5.670;2023-02-18T20:30:32;645.58;;;510.75;;
48361;SDS011;34510;51.888;5.670;2023-02-18T20:35:34;643.30;;;514.35;;
48361;SDS011;34510;51.888;5.670;2023-02-18T20:40:36;645.13;;;488.73;;
48361;SDS011;34510;51.888;5.670;2023-02-18T20:45:38;675.13;;;525.47;;
48361;SDS011;34510;51.888;5.670;2023-02-18T20:50:40;691.13;;;525.10;;
48361;SDS011;34510;51.888;5.670;2023-02-18T20:55:46;703.38;;;501.35;;
48361;SDS011;34510;51.888;5.670;2023-02-18T21:00:58;732.80;;;497.27;;
48361;SDS011;34510;51.888;5.670;2023-02-18T21:06:05;718.20;;;504.98;;
48361;SDS011;34510;51.888;5.670;2023-02-18T21:11:10;580.08;;;503.98;;
48361;SDS011;34510;51.888;5.670;2023-02-18T21:16:15;625.85;;;506.30;;
48361;SDS011;34510;51.888;5.670;2023-02-18T21:21:18;710.33;;;512.75;;
48361;SDS011;34510;51.888;5.670;2023-02-18T21:26:21;727.22;;;520.50;;
48361;SDS011;34510;51.888;5.670;2023-02-18T21:31:26;742.20;;;499.58;;
48361;SDS011;34510;51.888;5.670;2023-02-18T21:36:29;585.40;;;491.20;;
48361;SDS011;34510;51.888;5.670;2023-02-18T21:41:32;561.08;;;499.90;;
48361;SDS011;34510;51.888;5.670;2023-02-18T21:46:35;547.97;;;488.65;;
48361;SDS011;34510;51.888;5.670;2023-02-18T21:51:39;559.28;;;498.00;;
48361;SDS011;34510;51.888;5.670;2023-02-18T21:56:59;574.63;;;510.08;;
48361;SDS011;34510;51.888;5.670;2023-02-18T22:02:03;566.75;;;488.85;;
48361;SDS011;34510;51.888;5.670;2023-02-18T22:07:06;605.42;;;523.13;;
48361;SDS011;34510;51.888;5.670;2023-02-18T22:12:09;611.40;;;516.67;;
48361;SDS011;34510;51.888;5.670;2023-02-18T22:17:12;631.13;;;514.03;;
48361;SDS011;34510;51.888;5.670;2023-02-18T22:22:15;640.45;;;507.33;;
48361;SDS011;34510;51.888;5.670;2023-02-18T22:27:17;640.72;;;502.52;;
48361;SDS011;34510;51.888;5.670;2023-02-18T22:32:19;650.72;;;508.42;;
48361;SDS011;34510;51.888;5.670;2023-02-18T22:37:22;701.72;;;506.35;;
48361;SDS011;34510;51.888;5.670;2023-02-18T22:42:23;715.42;;;500.80;;
48361;SDS011;34510;51.888;5.670;2023-02-18T22:47:25;763.60;;;512.17;;
48361;SDS011;34510;51.888;5.670;2023-02-18T22:52:28;750.55;;;525.65;;
48361;SDS011;34510;51.888;5.670;2023-02-18T22:57:29;769.80;;;518.35;;
48361;SDS011;34510;51.888;5.670;2023-02-18T23:02:32;768.60;;;522.00;;
48361;SDS011;34510;51.888;5.670;2023-02-18T23:07:36;755.83;;;485.20;;
48361;SDS011;34510;51.888;5.670;2023-02-18T23:12:39;765.60;;;506.30;;
48361;SDS011;34510;51.888;5.670;2023-02-18T23:17:40;764.40;;;516.63;;
48361;SDS011;34510;51.888;5.670;2023-02-18T23:22:42;697.53;;;476.02;;
48361;SDS011;34510;51.888;5.670;2023-02-18T23:27:44;692.25;;;499.58;;
48361;SDS011;34510;51.888;5.670;2023-02-18T23:32:46;685.60;;;472.20;;
48361;SDS011;34510;51.888;5.670;2023-02-18T23:37:48;697.65;;;476.30;;
48361;SDS011;34510;51.888;5.670;2023-02-18T23:43:05;721.60;;;494.07;;
48361;SDS011;34510;51.888;5.670;2023-02-18T23:48:07;694.85;;;481.20;;
48361;SDS011;34510;51.888;5.670;2023-02-18T23:53:09;706.25;;;477.60;;
48361;SDS011;34510;51.888;5.670;2023-02-18T23:58:11;732.63;;;494.35;;
